Time;durP1;ratioP1;P1;durP2;ratioP2;P2;SDS_P1;SDS_P2;PMS_P1;PMS_P2;Temp;Humidity;BMP_temperature;BMP_pressure;BME280_temperature;BME280_humidity;BME280_pressure;Samples;Min_cycle;Max_cycle;Signal;HPM_P1;HPM_P2
2022/04/08 00:01:36;;;;;;;10.47;5.90;;;;;;;14.13;72.48;98038.53;5076929;28;21087;-62
2022/04/08 00:04:03;;;;;;;9.90;6.10;;;;;;;14.07;72.51;98052.44;5087752;28;20310;-62
2022/04/08 00:06:31;;;;;;;9.63;5.10;;;;;;;14.03;72.80;98043.06;5088705;28;20185;-58
2022/04/08 00:08:57;;;;;;;8.07;5.37;;;;;;;13.95;73.02;98049.28;5073484;28;20204;-61
2022/04/08 00:11:26;;;;;;;7.03;5.10;;;;;;;13.90;73.24;98053.69;5070041;28;20202;-61
2022/04/08 00:13:53;;;;;;;13.87;5.00;;;;;;;13.92;73.13;98055.34;5087145;28;20636;-62
2022/04/08 00:16:21;;;;;;;9.93;5.07;;;;;;;13.72;73.61;98030.78;5089947;28;20265;-62
2022/04/08 00:18:49;;;;;;;7.67;4.97;;;;;;;13.85;73.69;98058.06;5081598;28;20246;-61
2022/04/08 00:21:16;;;;;;;5.40;4.67;;;;;;;13.77;73.98;98053.06;5086784;28;20192;-62
2022/04/08 00:23:43;;;;;;;8.60;5.80;;;;;;;13.77;74.19;98054.78;5089313;28;20436;-61
2022/04/08 00:26:11;;;;;;;8.70;4.73;;;;;;;13.81;73.94;98048.69;5090517;28;20294;-62
2022/04/08 00:28:39;;;;;;;7.23;4.60;;;;;;;13.79;73.56;98045.28;5090736;28;20191;-61
2022/04/08 00:31:06;;;;;;;5.63;3.50;;;;;;;13.76;73.79;98047.94;5090560;28;20198;-61
2022/04/08 00:33:33;;;;;;;5.90;3.90;;;;;;;13.79;73.16;98048.69;5090759;28;20195;-61
2022/04/08 00:36:01;;;;;;;6.17;3.93;;;;;;;13.77;72.87;98050.47;5090187;28;20234;-61
2022/04/08 00:38:28;;;;;;;8.73;3.87;;;;;;;13.76;72.81;98053.91;5090354;28;20198;-61
2022/04/08 00:40:55;;;;;;;8.80;4.40;;;;;;;13.46;73.25;98013.22;5090456;28;20200;-62
2022/04/08 00:43:33;;;;;;;5.40;3.70;;;;;;;13.66;73.72;98054.13;5090393;28;20661;-62
2022/04/08 00:46:01;;;;;;;4.60;3.80;;;;;;;13.74;72.32;98063.44;5090418;28;20191;-62
2022/04/08 00:48:28;;;;;;;8.43;4.67;;;;;;;13.65;73.22;98068.78;5090437;28;20348;-62
2022/04/08 00:50:55;;;;;;;8.40;5.47;;;;;;;13.56;73.56;98064.66;5090659;28;20216;-61
2022/04/08 00:53:23;;;;;;;8.47;4.80;;;;;;;13.52;73.16;98082.78;5090723;28;20183;-61
2022/04/08 00:55:50;;;;;;;8.83;5.20;;;;;;;13.52;72.97;98080.19;5090664;28;20195;-61
2022/04/08 00:58:17;;;;;;;9.53;6.17;;;;;;;13.43;73.54;98081.22;5090168;28;20220;-61
2022/04/08 01:00:44;;;;;;;11.07;6.33;;;;;;;13.39;73.25;98086.47;5090534;28;20195;-61
2022/04/08 01:03:12;;;;;;;8.50;6.60;;;;;;;13.36;73.26;98097.69;5090422;28;20199;-62
2022/04/08 01:05:41;;;;;;;10.90;6.13;;;;;;;13.26;73.44;98100.44;5090401;28;20199;-61
2022/04/08 01:08:10;;;;;;;9.13;5.63;;;;;;;13.25;73.50;98106.47;5090270;28;20661;-61
2022/04/08 01:10:38;;;;;;;9.57;6.10;;;;;;;13.30;73.07;98114.97;5090362;28;20196;-61
2022/04/08 01:13:05;;;;;;;7.63;5.70;;;;;;;13.24;73.39;98115.13;5090219;28;20661;-61
2022/04/08 01:15:33;;;;;;;12.05;6.30;;;;;;;13.22;73.43;98125.44;5089655;28;20532;-61
2022/04/08 01:18:00;;;;;;;7.87;5.50;;;;;;;13.22;74.21;98122.00;5089980;28;20223;-61
2022/04/08 01:20:28;;;;;;;7.10;4.77;;;;;;;13.22;73.77;98122.00;5089920;28;20681;-62
2022/04/08 01:22:55;;;;;;;9.47;4.83;;;;;;;13.22;73.26;98117.69;5089956;28;20295;-62
2022/04/08 01:25:23;;;;;;;5.53;4.60;;;;;;;13.28;73.04;98127.06;5089974;28;20224;-62
2022/04/08 01:27:50;;;;;;;6.03;4.57;;;;;;;13.30;72.54;98126.16;5090205;28;20194;-62
2022/04/08 01:30:17;;;;;;;5.50;3.70;;;;;;;13.36;71.12;98135.53;5089960;28;20883;-62
2022/04/08 01:32:45;;;;;;;7.77;3.37;;;;;;;13.37;70.80;98138.09;5090001;28;20195;-62
2022/04/08 01:35:12;;;;;;;8.63;3.33;;;;;;;13.39;70.80;98136.34;5090627;28;20323;-61
2022/04/08 01:37:39;;;;;;;5.40;3.17;;;;;;;13.38;70.08;98139.78;5093750;28;20620;-62
2022/04/08 01:40:07;;;;;;;3.90;3.00;;;;;;;13.44;69.09;98137.09;5093825;28;20191;-62
2022/04/08 01:42:35;;;;;;;4.23;2.90;;;;;;;13.42;68.59;98130.25;5093065;28;20202;-62
2022/04/08 01:45:02;;;;;;;3.20;2.60;;;;;;;13.45;68.36;98133.66;5093704;28;20186;-62
2022/04/08 01:47:29;;;;;;;4.47;2.70;;;;;;;13.49;67.93;98137.88;5093582;28;20194;-61
2022/04/08 01:49:56;;;;;;;4.27;2.50;;;;;;;13.46;67.93;98140.50;5093626;28;20195;-61
2022/04/08 01:52:23;;;;;;;3.53;2.37;;;;;;;13.47;67.78;98144.78;5093759;28;20569;-60
2022/04/08 01:54:50;;;;;;;5.57;2.95;;;;;;;13.48;67.59;98151.66;5092701;28;20435;-61
2022/04/08 01:57:18;;;;;;;4.13;2.80;;;;;;;13.58;66.92;98139.44;5093172;28;20644;-61
2022/04/08 01:59:47;;;;;;;2.97;2.57;;;;;;;13.55;66.73;98144.66;5093395;28;20680;-61
2022/04/08 02:02:14;;;;;;;3.73;2.60;;;;;;;13.52;66.66;98140.41;5093574;28;20302;-61
2022/04/08 02:04:41;;;;;;;3.17;2.60;;;;;;;13.56;66.55;98147.22;5093775;28;20305;-60
2022/04/08 02:07:08;;;;;;;3.50;2.80;;;;;;;13.55;66.28;98139.50;5093450;28;20313;-60
2022/04/08 02:09:35;;;;;;;3.53;2.53;;;;;;;13.50;66.15;98139.59;5093434;28;20196;-60
2022/04/08 02:12:02;;;;;;;4.37;2.70;;;;;;;13.45;65.64;98136.25;5093309;28;20195;-61
2022/04/08 02:14:29;;;;;;;3.47;2.67;;;;;;;13.48;65.90;98146.50;5093467;28;20247;-61
2022/04/08 02:16:57;;;;;;;5.43;3.73;;;;;;;13.44;65.52;98142.25;5093149;28;20849;-61
2022/04/08 02:19:24;;;;;;;2.90;2.70;;;;;;;13.47;65.82;98154.25;5092957;28;20278;-61
2022/04/08 02:21:51;;;;;;;4.63;2.90;;;;;;;13.55;64.86;98153.25;5093275;28;20198;-61
2022/04/08 02:24:18;;;;;;;3.60;2.87;;;;;;;13.45;65.21;98154.28;5092237;28;20585;-61
2022/04/08 02:26:45;;;;;;;3.47;3.03;;;;;;;13.46;64.62;98153.41;5083592;28;20230;-58
2022/04/08 02:29:12;;;;;;;5.57;2.90;;;;;;;13.46;64.22;98150.81;5092733;28;20191;-58
2022/04/08 02:31:39;;;;;;;3.97;2.77;;;;;;;13.53;64.00;98160.19;5092766;28;20206;-58
2022/04/08 02:34:07;;;;;;;3.93;2.67;;;;;;;13.53;63.50;98157.59;5092977;28;20188;-58
2022/04/08 02:36:34;;;;;;;3.83;2.80;;;;;;;13.58;63.53;98162.66;5092500;28;20231;-58
2022/04/08 02:39:01;;;;;;;2.93;2.73;;;;;;;13.54;63.57;98161.84;5092847;28;20195;-58
2022/04/08 02:41:28;;;;;;;3.20;2.67;;;;;;;13.52;63.66;98161.03;5092651;28;20203;-58
2022/04/08 02:43:55;;;;;;;4.63;3.20;;;;;;;13.55;63.28;98163.56;5092433;28;20201;-58
2022/04/08 02:46:22;;;;;;;4.83;3.20;;;;;;;13.63;63.37;98173.75;5091961;28;20191;-61
2022/04/08 02:48:49;;;;;;;4.90;3.10;;;;;;;13.73;62.23;98174.47;5091661;28;20818;-61
2022/04/08 02:51:17;;;;;;;5.53;3.00;;;;;;;13.68;63.04;98178.88;5092424;28;20955;-60
2022/04/08 02:53:44;;;;;;;4.00;3.20;;;;;;;13.67;63.02;98180.59;5092427;28;20604;-61
2022/04/08 02:56:11;;;;;;;3.97;3.57;;;;;;;13.60;62.91;98177.25;5092442;28;20184;-60
2022/04/08 02:58:38;;;;;;;5.70;4.13;;;;;;;13.54;63.38;98187.66;5092411;28;20224;-60
2022/04/08 03:01:05;;;;;;;4.65;3.35;;;;;;;13.58;63.37;98184.16;5091833;28;20447;-60
2022/04/08 03:03:32;;;;;;;3.93;3.60;;;;;;;13.55;63.44;98186.81;5092164;28;20190;-60
2022/04/08 03:05:59;;;;;;;5.47;3.40;;;;;;;13.52;62.99;98189.44;5092173;28;20655;-61
2022/04/08 03:08:29;;;;;;;3.57;3.20;;;;;;;13.54;63.18;98192.81;5092015;28;20344;-61
2022/04/08 03:10:57;;;;;;;4.60;3.80;;;;;;;13.52;63.09;98198.88;5091871;28;20682;-60
2022/04/08 03:13:25;;;;;;;3.50;3.20;;;;;;;13.49;63.43;98196.34;5091899;28;20199;-60
2022/04/08 03:15:52;;;;;;;4.40;3.10;;;;;;;13.40;63.61;98204.25;5092033;28;20195;-60
2022/04/08 03:18:19;;;;;;;5.50;3.53;;;;;;;13.37;63.74;98200.00;5091704;28;20219;-61
2022/04/08 03:20:46;;;;;;;3.40;3.10;;;;;;;13.30;62.68;98182.03;5091707;28;20197;-61
2022/04/08 03:23:13;;;;;;;3.80;3.07;;;;;;;13.42;62.97;98207.66;5091738;28;20188;-61
2022/04/08 03:25:42;;;;;;;4.93;2.90;;;;;;;13.41;62.81;98206.81;5091672;28;20194;-61
2022/04/08 03:28:10;;;;;;;3.27;2.97;;;;;;;13.25;63.07;98207.91;5090420;28;20676;-60
2022/04/08 03:30:37;;;;;;;3.67;3.10;;;;;;;13.25;63.26;98204.47;5091855;28;20201;-61
2022/04/08 03:33:04;;;;;;;4.10;3.10;;;;;;;13.19;63.38;98210.59;5090767;28;20201;-60
2022/04/08 03:35:31;;;;;;;5.17;3.30;;;;;;;13.15;63.75;98210.66;5091390;28;20229;-60
2022/04/08 03:37:58;;;;;;;3.30;3.10;;;;;;;13.19;63.67;98217.47;5090361;28;20218;-61
2022/04/08 03:40:25;;;;;;;4.88;3.70;;;;;;;13.15;63.96;98211.53;5091006;28;20447;-61
2022/04/08 03:42:53;;;;;;;4.93;3.23;;;;;;;13.19;63.40;98220.03;5091699;28;20202;-60
2022/04/08 03:45:20;;;;;;;5.83;3.47;;;;;;;13.17;64.12;98225.25;5091315;28;20199;-60
2022/04/08 03:47:48;;;;;;;4.73;3.20;;;;;;;13.19;63.41;98220.91;5091308;28;20539;-60
2022/04/08 03:50:15;;;;;;;6.37;3.43;;;;;;;13.18;63.69;98221.78;5091113;28;20191;-61
2022/04/08 03:52:43;;;;;;;4.43;3.37;;;;;;;13.18;64.03;98220.94;5091240;28;20290;-58
2022/04/08 03:55:11;;;;;;;4.30;3.40;;;;;;;13.27;63.33;98223.34;5079278;28;20448;-58
2022/04/08 03:57:37;;;;;;;3.87;3.07;;;;;;;13.35;62.89;98231.88;5075130;28;20219;-58
2022/04/08 04:00:08;;;;;;;4.43;3.40;;;;;;;13.46;61.96;98240.25;5091009;28;20197;-56
2022/04/08 04:02:35;;;;;;;3.97;3.07;;;;;;;13.41;62.05;98245.50;5091329;28;20585;-58
2022/04/08 04:05:02;;;;;;;3.90;3.00;;;;;;;13.43;61.75;98250.66;5090904;28;20241;-58
2022/04/08 04:07:29;;;;;;;5.60;3.60;;;;;;;13.41;62.04;98247.22;5090759;28;20206;-57
2022/04/08 04:09:58;;;;;;;4.30;3.17;;;;;;;13.41;61.84;98242.91;5089825;28;20199;-59
2022/04/08 04:12:26;;;;;;;4.27;3.77;;;;;;;13.39;61.18;98249.00;5081659;28;20191;-58
2022/04/08 04:14:53;;;;;;;5.23;3.43;;;;;;;13.49;60.82;98253.13;5087779;28;20252;-62
2022/04/08 04:17:22;;;;;;;3.27;3.07;;;;;;;13.50;60.48;98260.00;5090309;28;20195;-62
2022/04/08 04:19:49;;;;;;;5.27;3.40;;;;;;;13.48;60.96;98260.03;5090090;28;20272;-62
2022/04/08 04:22:16;;;;;;;3.13;2.83;;;;;;;13.58;60.23;98268.47;5090268;28;20185;-61
2022/04/08 04:24:43;;;;;;;3.40;2.90;;;;;;;13.51;60.67;98269.44;5089852;28;20186;-60
2022/04/08 04:27:10;;;;;;;3.83;2.90;;;;;;;13.56;60.13;98283.13;5089990;28;20278;-62
2022/04/08 04:29:36;;;;;;;8.27;3.67;;;;;;;13.56;60.44;98284.00;5089664;28;20277;-61
2022/04/08 04:32:05;;;;;;;3.90;3.30;;;;;;;13.67;59.38;98289.00;5090179;28;20196;-61
2022/04/08 04:34:36;;;;;;;3.77;3.40;;;;;;;13.63;60.27;98294.19;5085148;28;20197;-61
2022/04/08 04:37:03;;;;;;;3.37;2.73;;;;;;;13.73;59.62;98285.47;5080797;28;20250;-62
2022/04/08 04:39:30;;;;;;;3.90;3.43;;;;;;;13.72;59.53;98294.94;5090215;28;20219;-61
2022/04/08 04:41:57;;;;;;;4.27;3.20;;;;;;;13.72;59.54;98289.75;5090025;28;20190;-61
2022/04/08 04:44:26;;;;;;;6.30;3.13;;;;;;;13.89;59.00;98292.06;5085388;28;20446;-61
2022/04/08 04:46:53;;;;;;;4.07;3.47;;;;;;;13.90;59.00;98306.69;5081843;28;20193;-62
2022/04/08 04:49:20;;;;;;;6.90;3.20;;;;;;;13.99;58.58;98302.22;5085315;28;20197;-62
2022/04/08 04:51:49;;;;;;;3.23;2.83;;;;;;;14.00;58.40;98308.25;5089377;28;20195;-61
2022/04/08 04:54:19;;;;;;;3.83;3.33;;;;;;;13.98;58.51;98310.84;5089648;28;20187;-63
2022/04/08 04:56:47;;;;;;;6.10;3.50;;;;;;;13.97;58.84;98327.22;5089308;28;20339;-62
2022/04/08 04:59:14;;;;;;;5.13;3.73;;;;;;;13.94;58.71;98318.66;5089763;28;20217;-61
2022/04/08 05:01:41;;;;;;;3.23;2.90;;;;;;;13.90;58.52;98333.34;5089423;28;20720;-61
2022/04/08 05:04:08;;;;;;;3.37;3.07;;;;;;;13.91;59.13;98329.03;5089169;28;20195;-62
2022/04/08 05:06:34;;;;;;;3.80;3.27;;;;;;;13.93;59.19;98350.53;5089462;28;20569;-61
2022/04/08 05:09:05;;;;;;;5.10;3.17;;;;;;;13.95;58.94;98348.78;5088425;28;20258;-61
2022/04/08 05:11:32;;;;;;;4.30;3.40;;;;;;;13.79;59.10;98314.59;5084773;28;20192;-61
2022/04/08 05:14:00;;;;;;;3.87;2.90;;;;;;;13.90;59.15;98353.19;5093937;28;20294;-62
2022/04/08 05:16:27;;;;;;;5.57;3.30;;;;;;;13.95;59.26;98365.09;5093937;28;20533;-61
2022/04/08 05:18:54;;;;;;;4.60;3.57;;;;;;;14.02;59.10;98365.88;5093961;28;20642;-61
2022/04/08 05:21:21;;;;;;;3.93;3.00;;;;;;;14.12;58.56;98372.59;5094198;28;20212;-62
2022/04/08 05:23:48;;;;;;;8.80;3.57;;;;;;;14.15;58.32;98378.56;5085960;28;20184;-61
2022/04/08 05:26:17;;;;;;;4.67;2.90;;;;;;;14.24;57.86;98368.97;5089717;28;20202;-61
2022/04/08 05:28:44;;;;;;;8.33;3.53;;;;;;;14.30;58.22;98372.31;5093837;28;20305;-61
2022/04/08 05:31:11;;;;;;;7.30;3.30;;;;;;;14.42;57.80;98379.88;5093772;28;20191;-62
2022/04/08 05:33:37;;;;;;;6.23;3.27;;;;;;;14.41;57.67;98385.94;5093884;28;20263;-62
2022/04/08 05:36:05;;;;;;;3.73;2.80;;;;;;;14.52;57.42;98385.75;5093690;28;20348;-61
2022/04/08 05:38:31;;;;;;;4.37;3.17;;;;;;;14.59;57.36;98384.75;5093473;28;20214;-61
2022/04/08 05:40:59;;;;;;;6.47;3.20;;;;;;;14.70;57.09;98394.03;5093713;28;21002;-63
2022/04/08 05:43:27;;;;;;;3.87;2.87;;;;;;;14.75;57.07;98393.94;5093486;28;21012;-60
2022/04/08 05:45:54;;;;;;;5.97;2.97;;;;;;;14.83;57.01;98402.44;5093310;28;20679;-61
2022/04/08 05:48:21;;;;;;;3.23;2.90;;;;;;;14.86;55.52;98410.13;5092842;28;20207;-61
2022/04/08 05:50:48;;;;;;;3.03;2.67;;;;;;;14.89;54.99;98402.31;5093202;28;20201;-61
2022/04/08 05:53:14;;;;;;;4.37;3.87;;;;;;;14.99;55.44;98413.34;5093126;28;20700;-61
2022/04/08 05:55:42;;;;;;;3.03;2.80;;;;;;;15.06;54.63;98412.34;5092966;28;20191;-61
2022/04/08 05:58:09;;;;;;;5.23;2.60;;;;;;;15.19;53.05;98416.41;5092949;28;20213;-61
2022/04/08 06:00:37;;;;;;;4.70;3.10;;;;;;;15.24;53.24;98417.19;5093341;28;20286;-62
2022/04/08 06:03:04;;;;;;;2.93;2.63;;;;;;;15.31;51.84;98416.16;5092829;28;20691;-61
2022/04/08 06:05:31;;;;;;;2.50;2.20;;;;;;;15.27;51.64;98396.41;5092882;28;20280;-61
2022/04/08 06:07:58;;;;;;;2.20;1.93;;;;;;;15.61;49.70;98438.00;5092956;28;20183;-61
2022/04/08 06:10:26;;;;;;;3.17;2.60;;;;;;;15.72;49.43;98434.31;5087449;28;20298;-61
2022/04/08 06:12:54;;;;;;;5.97;2.73;;;;;;;15.75;49.17;98431.66;5087780;28;20194;-61
2022/04/08 06:15:21;;;;;;;2.80;2.40;;;;;;;15.85;49.22;98446.09;5093131;28;20191;-59
2022/04/08 06:17:50;;;;;;;3.93;2.30;;;;;;;16.03;48.82;98446.59;5090946;28;20684;-57
2022/04/08 06:20:17;;;;;;;3.27;2.47;;;;;;;16.11;47.97;98449.88;5089728;28;20186;-60
2022/04/08 06:22:45;;;;;;;2.50;2.30;;;;;;;16.19;48.06;98450.53;5090762;28;20432;-60
2022/04/08 06:25:14;;;;;;;2.60;2.30;;;;;;;16.27;47.98;98451.22;5092155;28;20276;-60
2022/04/08 06:27:41;;;;;;;2.60;2.27;;;;;;;16.15;47.73;98433.38;5091626;28;20261;-59
2022/04/08 06:30:10;;;;;;;2.77;2.10;;;;;;;16.34;47.62;98469.19;5090574;28;20278;-61
2022/04/08 06:32:37;;;;;;;3.90;2.37;;;;;;;16.38;47.29;98469.97;5086899;28;20205;-61
2022/04/08 06:35:06;;;;;;;2.90;2.60;;;;;;;16.33;47.65;98461.44;5090279;28;20241;-60
2022/04/08 06:37:34;;;;;;;2.37;2.10;;;;;;;16.39;47.56;98466.50;5091618;28;20340;-61
2022/04/08 06:40:04;;;;;;;2.80;2.07;;;;;;;16.43;46.94;98462.94;5091827;28;20299;-61
2022/04/08 06:42:31;;;;;;;3.93;2.57;;;;;;;16.52;46.81;98476.53;5089037;28;20187;-61
2022/04/08 06:44:58;;;;;;;5.63;3.43;;;;;;;16.58;47.01;98477.31;5091732;28;20278;-61
2022/04/08 06:47:25;;;;;;;6.03;2.50;;;;;;;16.60;47.14;98470.34;5091682;28;20213;-62
2022/04/08 06:49:52;;;;;;;4.73;2.27;;;;;;;16.63;46.95;98472.84;5091566;28;20566;-61
2022/04/08 06:52:20;;;;;;;3.77;3.00;;;;;;;16.70;47.33;98485.63;5091625;28;20270;-61
2022/04/08 06:54:47;;;;;;;3.40;2.63;;;;;;;16.78;46.63;98495.84;5090547;28;20191;-61
2022/04/08 06:57:14;;;;;;;3.83;2.80;;;;;;;16.84;46.48;98483.56;5090815;28;20190;-61
2022/04/08 06:59:41;;;;;;;4.13;2.50;;;;;;;16.95;46.34;98486.72;5090887;28;20616;-61
2022/04/08 07:02:09;;;;;;;3.17;2.87;;;;;;;17.03;46.38;98483.97;5090646;28;20542;-62
2022/04/08 07:04:36;;;;;;;4.90;2.53;;;;;;;17.10;45.41;98491.53;5090246;28;20183;-60
2022/04/08 07:07:04;;;;;;;5.60;2.30;;;;;;;17.12;44.96;98504.47;5090258;28;20230;-62
2022/04/08 07:09:33;;;;;;;2.17;2.07;;;;;;;17.22;44.43;98505.09;5091663;28;20196;-60
2022/04/08 07:12:00;;;;;;;2.95;2.20;;;;;;;17.30;44.62;98491.03;5090751;28;20444;-61
2022/04/08 07:14:27;;;;;;;5.50;2.40;;;;;;;17.40;44.53;98502.00;5091671;28;20198;-61
2022/04/08 07:16:55;;;;;;;4.63;2.30;;;;;;;17.47;45.03;98503.56;5090467;28;20190;-60
2022/04/08 07:19:22;;;;;;;4.63;2.57;;;;;;;17.49;44.88;98489.63;5091243;28;20701;-60
2022/04/08 07:21:49;;;;;;;2.70;2.50;;;;;;;17.58;44.84;98496.31;5087003;28;20190;-60
2022/04/08 07:24:15;;;;;;;2.90;2.50;;;;;;;17.64;44.20;98509.16;5089208;28;20190;-60
2022/04/08 07:26:44;;;;;;;2.57;2.37;;;;;;;17.60;43.98;98508.41;5083296;28;20240;-60
2022/04/08 07:29:11;;;;;;;4.13;2.47;;;;;;;17.65;44.19;98519.50;5091449;28;20189;-59
2022/04/08 07:31:38;;;;;;;2.77;2.20;;;;;;;17.79;43.96;98521.72;5088683;28;20195;-58
2022/04/08 07:34:05;;;;;;;5.43;2.57;;;;;;;17.88;43.71;98531.84;5080182;28;20191;-60
2022/04/08 07:36:32;;;;;;;10.63;2.83;;;;;;;17.93;43.42;98524.78;5090885;28;20233;-61
2022/04/08 07:38:58;;;;;;;3.57;2.50;;;;;;;17.99;43.41;98523.75;5090235;28;20218;-60
2022/04/08 07:41:25;;;;;;;6.33;2.23;;;;;;;18.10;43.09;98519.91;5082020;28;20194;-61
2022/04/08 07:43:55;;;;;;;3.50;2.43;;;;;;;18.11;43.11;98519.03;5090426;28;20697;-61
2022/04/08 07:46:22;;;;;;;7.53;2.57;;;;;;;18.24;43.44;98522.97;5090736;28;20183;-61
2022/04/08 07:48:49;;;;;;;4.00;2.70;;;;;;;18.37;42.41;98523.47;5089679;28;20440;-61
2022/04/08 07:51:16;;;;;;;4.20;2.40;;;;;;;18.49;41.82;98524.84;5082743;28;20190;-61
2022/04/08 07:53:43;;;;;;;4.43;2.27;;;;;;;18.56;41.90;98519.44;5087990;28;20257;-61
2022/04/08 07:56:10;;;;;;;2.53;2.33;;;;;;;18.67;42.04;98525.16;5090309;28;20179;-61
2022/04/08 07:58:37;;;;;;;3.20;2.30;;;;;;;18.65;41.78;98518.28;5089954;28;20207;-61
2022/04/08 08:01:05;;;;;;;3.33;2.23;;;;;;;18.73;41.55;98514.53;5087742;28;20590;-61
2022/04/08 08:03:34;;;;;;;3.90;2.83;;;;;;;18.76;41.80;98531.81;5090004;28;20183;-61
2022/04/08 08:06:03;;;;;;;4.20;2.83;;;;;;;18.87;41.46;98524.47;5090008;28;20222;-62
2022/04/08 08:08:30;;;;;;;3.60;2.87;;;;;;;18.94;40.52;98527.75;5090093;28;20652;-62
2022/04/08 08:10:57;;;;;;;3.30;2.80;;;;;;;19.04;40.35;98540.41;5090137;28;20199;-60
2022/04/08 08:13:24;;;;;;;3.73;2.90;;;;;;;18.99;40.12;98555.34;5090502;28;20558;-59
2022/04/08 08:15:51;;;;;;;4.00;2.70;;;;;;;19.09;39.94;98550.69;5088935;28;20563;-59
2022/04/08 08:18:21;;;;;;;4.57;3.00;;;;;;;19.10;39.88;98557.56;5089897;28;20206;-59
2022/04/08 08:20:49;;;;;;;3.27;2.93;;;;;;;19.18;40.04;98568.59;5089994;28;20222;-59
2022/04/08 08:23:15;;;;;;;4.33;2.60;;;;;;;19.27;40.17;98563.94;5089994;28;20217;-59
2022/04/08 08:25:44;;;;;;;4.90;3.47;;;;;;;19.37;40.17;98560.13;5088562;28;20277;-59
2022/04/08 08:28:11;;;;;;;4.27;3.30;;;;;;;19.47;39.34;98580.69;5087225;28;20231;-60
2022/04/08 08:30:39;;;;;;;4.40;2.83;;;;;;;19.50;38.38;98577.97;5090360;28;20293;-60
2022/04/08 08:33:07;;;;;;;2.83;2.53;;;;;;;19.51;38.38;98584.88;5090111;28;20190;-59
2022/04/08 08:35:35;;;;;;;7.83;3.63;;;;;;;19.65;38.68;98582.66;5089862;28;20230;-59
2022/04/08 08:38:03;;;;;;;2.70;2.47;;;;;;;19.73;37.79;98568.44;5090062;28;20197;-61
2022/04/08 08:40:31;;;;;;;3.73;3.00;;;;;;;19.74;37.67;98566.69;5090277;28;20276;-59
2022/04/08 08:42:59;;;;;;;5.03;3.50;;;;;;;19.90;37.10;98575.66;5090044;28;20670;-59
2022/04/08 08:45:32;;;;;;;3.63;2.97;;;;;;;19.88;37.02;98580.94;5089563;28;20195;-59
2022/04/08 08:48:00;;;;;;;5.67;3.23;;;;;;;19.89;36.71;98580.03;5088806;28;20190;-59
2022/04/08 08:50:28;;;;;;;5.47;3.53;;;;;;;19.90;36.47;98568.69;5088656;28;20194;-59
2022/04/08 08:52:57;;;;;;;3.33;3.03;;;;;;;19.99;36.73;98557.09;5088196;28;20202;-60
2022/04/08 08:55:24;;;;;;;3.83;3.50;;;;;;;20.21;36.14;98573.66;5087403;28;20436;-59
2022/04/08 08:57:52;;;;;;;2.97;2.77;;;;;;;20.40;35.06;98574.69;5088262;28;20195;-60
2022/04/08 09:00:23;;;;;;;4.63;3.03;;;;;;;20.35;35.20;98563.59;5088595;28;20222;-60
2022/04/08 09:02:50;;;;;;;5.50;3.10;;;;;;;20.43;34.86;98565.91;5089153;28;20191;-59
2022/04/08 09:05:21;;;;;;;4.13;3.37;;;;;;;20.54;35.24;98558.50;5089679;28;20195;-60
2022/04/08 09:07:57;;;;;;;3.83;3.40;;;;;;;20.60;34.37;98553.06;5089973;28;20199;-60
2022/04/08 09:10:29;;;;;;;7.63;3.87;;;;;;;20.32;34.52;98508.91;5089345;28;20273;-60
2022/04/08 09:12:57;;;;;;;2.93;2.73;;;;;;;20.64;34.38;98548.53;5089370;28;20195;-60
2022/04/08 09:15:24;;;;;;;4.37;3.00;;;;;;;20.75;34.40;98555.03;5089403;28;20294;-60
2022/04/08 09:17:52;;;;;;;4.77;3.20;;;;;;;20.83;34.14;98550.38;5089177;28;20195;-59
2022/04/08 09:20:19;;;;;;;5.87;3.93;;;;;;;20.91;34.05;98556.13;5089229;28;20263;-60
2022/04/08 09:22:55;;;;;;;5.10;3.33;;;;;;;20.99;33.73;98553.19;5089323;28;20693;-60
2022/04/08 09:25:27;;;;;;;3.93;3.53;;;;;;;21.01;33.78;98561.84;5089462;28;20607;-60
2022/04/08 09:27:57;;;;;;;3.30;3.00;;;;;;;21.12;33.33;98557.06;5089333;28;20195;-60
2022/04/08 09:30:24;;;;;;;2.80;2.60;;;;;;;21.20;32.43;98565.44;5089145;28;20183;-59
2022/04/08 09:32:54;;;;;;;6.80;3.00;;;;;;;21.28;32.77;98567.72;5089384;28;20248;-59
2022/04/08 09:35:23;;;;;;;3.50;3.03;;;;;;;21.13;31.94;98563.97;5089051;28;20227;-60
2022/04/08 09:38:01;;;;;;;3.53;3.23;;;;;;;21.27;31.07;98555.56;5088764;28;20620;-59
2022/04/08 09:40:37;;;;;;;3.33;3.03;;;;;;;21.42;31.69;98554.94;5088698;28;20248;-59
2022/04/08 09:43:04;;;;;;;3.50;3.13;;;;;;;21.60;31.53;98555.00;5084952;28;20202;-60
2022/04/08 09:45:31;;;;;;;3.97;2.73;;;;;;;21.62;29.79;98563.59;5084409;28;20299;-59
2022/04/08 09:47:58;;;;;;;3.30;3.00;;;;;;;21.61;29.67;98558.47;5084585;28;20210;-59
2022/04/08 09:50:26;;;;;;;4.57;3.23;;;;;;;21.64;29.78;98558.31;5069078;28;20271;-60
2022/04/08 09:52:53;;;;;;;3.23;2.80;;;;;;;21.69;29.38;98566.81;5068972;28;20202;-59
2022/04/08 09:55:21;;;;;;;4.67;2.93;;;;;;;21.69;29.45;98567.66;5069227;28;20191;-61
2022/04/08 09:57:53;;;;;;;5.47;3.10;;;;;;;21.66;29.07;98567.81;5082825;28;20699;-61
2022/04/08 10:00:20;;;;;;;4.93;2.93;;;;;;;21.82;28.73;98554.91;5089726;28;20230;-61
2022/04/08 10:02:50;;;;;;;3.00;2.70;;;;;;;21.93;28.29;98539.63;5092239;28;20278;-61
2022/04/08 10:05:17;;;;;;;3.23;2.30;;;;;;;21.85;28.18;98551.28;5092407;28;20197;-62
2022/04/08 10:07:46;;;;;;;3.07;2.60;;;;;;;21.95;28.27;98539.56;5092522;28;20209;-61
2022/04/08 10:10:19;;;;;;;5.97;2.83;;;;;;;21.99;27.92;98541.09;5092351;28;20191;-61
2022/04/08 10:13:05;;;;;;;6.20;3.30;;;;;;;21.93;28.12;98554.44;5091794;28;20202;-61
2022/04/08 10:15:37;;;;;;;5.70;5.17;;;;;;;21.99;28.10;98539.34;5090422;28;20206;-62
2022/04/08 10:18:05;;;;;;;4.30;2.87;;;;;;;22.09;29.03;98552.84;5092265;28;20643;-61
2022/04/08 10:20:33;;;;;;;2.80;2.60;;;;;;;22.15;27.62;98563.91;5092213;28;20218;-62
2022/04/08 10:23:08;;;;;;;4.50;3.00;;;;;;;22.12;27.66;98566.66;5092361;28;20205;-62
2022/04/08 10:25:38;;;;;;;3.87;2.90;;;;;;;22.16;27.60;98573.44;5091971;28;20255;-61
2022/04/08 10:28:07;;;;;;;5.90;2.90;;;;;;;22.12;27.71;98544.84;5091574;28;20205;-60
2022/04/08 10:30:36;;;;;;;2.60;2.40;;;;;;;22.28;27.88;98564.16;5091503;28;20191;-61
2022/04/08 10:33:04;;;;;;;2.63;2.43;;;;;;;22.29;27.63;98556.28;5091603;28;20616;-62
2022/04/08 10:35:31;;;;;;;2.47;2.28;;;;;;;22.25;28.00;98538.13;5090724;28;20455;-62
2022/04/08 10:37:59;;;;;;;2.50;2.30;;;;;;;22.54;26.93;98558.59;5092253;28;20262;-62
2022/04/08 10:40:34;;;;;;;3.53;2.30;;;;;;;22.56;27.47;98561.97;5090830;28;20211;-61
2022/04/08 10:43:02;;;;;;;2.60;2.40;;;;;;;22.48;27.84;98534.47;5092228;28;20192;-61
2022/04/08 10:45:30;;;;;;;2.97;2.63;;;;;;;22.71;28.07;98553.44;5092353;28;20273;-61
2022/04/08 10:48:01;;;;;;;7.47;4.23;;;;;;;22.74;27.23;98536.75;5092074;28;20278;-61
2022/04/08 10:50:30;;;;;;;4.60;4.20;;;;;;;22.87;27.08;98558.78;5091944;28;20193;-62
2022/04/08 10:53:07;;;;;;;3.33;2.53;;;;;;;22.84;27.21;98549.31;5089562;28;20622;-61
2022/04/08 10:55:46;;;;;;;2.30;2.10;;;;;;;22.88;26.19;98555.25;5091648;28;20211;-59
2022/04/08 10:58:15;;;;;;;2.33;2.13;;;;;;;22.60;26.31;98521.66;5091820;28;20194;-60
2022/04/08 11:00:44;;;;;;;3.87;2.57;;;;;;;22.88;26.78;98569.19;5091484;28;20261;-59
2022/04/08 11:03:11;;;;;;;3.33;2.63;;;;;;;22.77;26.66;98542.66;5091706;28;20195;-60
2022/04/08 11:05:40;;;;;;;2.70;2.50;;;;;;;22.85;27.16;98543.13;5091252;28;20195;-60
2022/04/08 11:08:08;;;;;;;3.33;2.60;;;;;;;22.89;27.14;98547.31;5090438;28;20433;-60
2022/04/08 11:10:35;;;;;;;4.90;2.90;;;;;;;23.03;26.40;98548.41;5091270;28;20175;-59
2022/04/08 11:13:02;;;;;;;7.43;5.03;;;;;;;23.02;25.96;98546.72;5091076;28;20644;-60
2022/04/08 11:15:30;;;;;;;8.13;6.97;;;;;;;23.09;25.93;98528.00;5090880;28;20195;-60
2022/04/08 11:18:01;;;;;;;7.50;5.47;;;;;;;22.98;26.25;98509.34;5091271;28;20270;-60
2022/04/08 11:20:28;;;;;;;4.90;3.53;;;;;;;23.17;25.27;98533.72;5091169;28;20211;-59
2022/04/08 11:22:56;;;;;;;7.23;3.83;;;;;;;23.24;25.99;98531.63;5083840;28;20994;-59
2022/04/08 11:25:25;;;;;;;4.20;3.30;;;;;;;23.21;26.73;98537.03;5090561;28;20225;-59
2022/04/08 11:27:59;;;;;;;4.67;2.90;;;;;;;23.29;26.00;98551.41;5090836;28;20199;-60
2022/04/08 11:30:26;;;;;;;2.47;2.27;;;;;;;23.31;24.95;98533.00;5091172;28;20186;-59
2022/04/08 11:32:53;;;;;;;2.37;2.20;;;;;;;23.33;24.88;98524.13;5091029;28;20191;-58
2022/04/08 11:35:21;;;;;;;4.67;3.83;;;;;;;23.45;24.72;98525.34;5090316;28;20230;-59
2022/04/08 11:37:48;;;;;;;5.00;3.70;;;;;;;23.37;25.01;98527.47;5090736;28;20194;-59